Time;durP1;ratioP1;P1;durP2;ratioP2;P2;SDS_P1;SDS_P2;PMS_P1;PMS_P2;Temp;Humidity;BMP_temperature;BMP_pressure;BME280_temperature;BME280_humidity;BME280_pressure;Samples;Min_cycle;Max_cycle;Signal;HPM_P1;HPM_P2
2022/04/15 00:01:58;;;;;;;11.63;4.35;;;;;;;9.98;100.00;94762.53;5024141;28;20031;-90
2022/04/15 00:04:23;;;;;;;12.05;4.57;;;;;;;10.16;100.00;94771.00;5040094;28;20033;-89
2022/04/15 00:06:49;;;;;;;8.77;3.83;;;;;;;10.13;100.00;94771.53;5040580;28;20037;-90
2022/04/15 00:09:15;;;;;;;10.70;4.15;;;;;;;10.12;100.00;94768.13;5039830;28;20029;-89
2022/04/15 00:11:40;;;;;;;11.10;4.18;;;;;;;10.10;100.00;94759.72;5040496;28;20031;-90
2022/04/15 00:14:06;;;;;;;8.93;4.07;;;;;;;10.07;100.00;94759.47;5023672;28;20043;-89
2022/04/15 00:16:31;;;;;;;8.93;4.40;;;;;;;10.07;100.00;94764.69;5023740;28;20456;-90
2022/04/15 00:18:56;;;;;;;12.75;4.53;;;;;;;10.00;100.00;94767.53;5039736;28;20037;-91
2022/04/15 00:21:22;;;;;;;9.20;4.10;;;;;;;9.95;100.00;94768.28;5039767;28;20079;-90
2022/04/15 00:23:48;;;;;;;9.23;3.83;;;;;;;9.67;100.00;94761.56;5023443;28;20052;-90
2022/04/15 00:26:14;;;;;;;6.75;3.58;;;;;;;9.63;100.00;94750.81;5023463;28;20051;-90
2022/04/15 00:28:39;;;;;;;8.55;4.50;;;;;;;9.56;100.00;94758.09;5023412;28;20033;-91
2022/04/15 00:31:05;;;;;;;13.02;4.22;;;;;;;9.24;100.00;94753.66;5039557;28;20104;-90
2022/04/15 00:33:30;;;;;;;10.77;4.50;;;;;;;9.19;100.00;94755.19;5023550;28;20036;-89
2022/04/15 00:35:55;;;;;;;11.88;4.60;;;;;;;9.31;100.00;94760.25;5039561;28;20021;-90
2022/04/15 00:38:21;;;;;;;13.57;5.20;;;;;;;9.34;100.00;94758.97;5039686;28;20025;-89
2022/04/15 00:40:46;;;;;;;10.90;4.60;;;;;;;9.38;100.00;94751.41;5039527;28;20039;-90
2022/04/15 00:43:12;;;;;;;10.00;4.72;;;;;;;9.46;100.00;94749.13;5023200;28;20032;-89
2022/04/15 00:45:37;;;;;;;11.80;4.97;;;;;;;9.44;100.00;94753.03;5023322;28;20029;-89
2022/04/15 00:48:03;;;;;;;9.75;4.75;;;;;;;9.44;100.00;94756.44;5039575;28;20446;-91
2022/04/15 00:50:33;;;;;;;11.75;4.70;;;;;;;9.41;100.00;94753.53;5039341;28;20028;-91
2022/04/15 00:53:06;;;;;;;15.27;4.93;;;;;;;9.27;100.00;94753.97;5039456;28;20020;-90
2022/04/15 00:55:32;;;;;;;10.90;4.63;;;;;;;9.11;100.00;94749.59;5023603;28;20051;-90
2022/04/15 00:58:02;;;;;;;11.20;5.20;;;;;;;9.29;100.00;94751.88;5023038;28;20029;-90
2022/04/15 01:00:30;;;;;;;16.35;5.50;;;;;;;9.17;100.00;94749.41;5039012;28;20397;-89
2022/04/15 01:02:57;;;;;;;18.48;5.70;;;;;;;9.14;100.00;94746.53;5039408;28;20430;-89
2022/04/15 01:05:22;;;;;;;11.10;5.35;;;;;;;9.13;100.00;94744.94;5039027;28;20035;-90
2022/04/15 01:07:55;;;;;;;11.68;5.82;;;;;;;9.17;100.00;94746.78;5022994;28;20029;-89
2022/04/15 01:10:25;;;;;;;12.82;6.13;;;;;;;9.36;100.00;94746.44;5023339;28;20025;-89
2022/04/15 01:12:54;;;;;;;10.35;5.50;;;;;;;9.34;100.00;94749.28;5039610;28;20123;-90
2022/04/15 01:15:21;;;;;;;15.57;5.47;;;;;;;9.18;100.00;94745.78;5039131;28;20025;-89
2022/04/15 01:17:46;;;;;;;17.52;5.70;;;;;;;8.91;100.00;94745.78;5038217;28;20139;-88
2022/04/15 01:20:12;;;;;;;13.32;6.25;;;;;;;8.90;100.00;94742.41;5038985;28;20041;-89
2022/04/15 01:22:43;;;;;;;16.02;6.20;;;;;;;9.17;100.00;94743.41;5006591;28;20029;-89
2022/04/15 01:25:12;;;;;;;12.35;5.55;;;;;;;9.02;100.00;94747.47;5022794;28;20077;-89
2022/04/15 01:27:40;;;;;;;15.35;6.00;;;;;;;8.94;100.00;94741.91;5038871;28;20025;-91
2022/04/15 01:30:10;;;;;;;12.95;5.32;;;;;;;9.12;100.00;94740.75;5038937;28;20025;-89
2022/04/15 01:32:36;;;;;;;13.32;6.30;;;;;;;8.85;100.00;94747.56;5022770;28;20132;-89
2022/04/15 01:35:02;;;;;;;11.07;5.90;;;;;;;8.80;100.00;94749.31;5022356;28;20178;-90
2022/04/15 01:37:28;;;;;;;14.02;6.35;;;;;;;8.84;100.00;94745.97;5022403;28;20495;-88
2022/04/15 01:39:53;;;;;;;19.42;6.65;;;;;;;9.08;100.00;94745.69;5038907;28;20024;-89
2022/04/15 01:42:19;;;;;;;17.25;6.82;;;;;;;9.26;100.00;94739.31;5039123;28;20116;-90
2022/04/15 01:44:44;;;;;;;17.80;6.70;;;;;;;9.47;100.00;94742.06;5038670;28;20137;-89
2022/04/15 01:47:11;;;;;;;14.90;6.55;;;;;;;9.54;100.00;94737.44;5023676;28;20028;-90
2022/04/15 01:49:37;;;;;;;18.00;6.97;;;;;;;9.61;100.00;94743.22;5042872;28;20112;-90
2022/04/15 01:52:04;;;;;;;16.60;6.97;;;;;;;9.79;100.00;94743.06;5043020;28;20449;-89
2022/04/15 01:54:32;;;;;;;16.48;6.38;;;;;;;9.99;100.00;94748.41;5026197;28;20024;-90
2022/04/15 01:56:58;;;;;;;12.82;6.68;;;;;;;10.11;100.00;94744.81;5025764;28;20335;-90
2022/04/15 01:59:24;;;;;;;15.68;7.22;;;;;;;10.04;100.00;94742.44;5025625;28;20047;-90
2022/04/15 02:01:54;;;;;;;14.63;7.03;;;;;;;9.86;100.00;94754.09;5026048;28;20028;-89
2022/04/15 02:04:23;;;;;;;16.65;6.55;;;;;;;9.70;100.00;94754.00;5026802;28;20025;-90
2022/04/15 02:06:48;;;;;;;16.55;6.70;;;;;;;9.76;100.00;94747.78;5042440;28;20083;-91
2022/04/15 02:09:14;;;;;;;16.67;6.63;;;;;;;9.48;100.00;94744.44;5042303;28;20021;-90
2022/04/15 02:11:40;;;;;;;15.25;6.68;;;;;;;9.38;100.00;94751.41;5042398;28;20023;-89
2022/04/15 02:14:06;;;;;;;14.40;6.90;;;;;;;8.77;100.00;94748.78;5059745;28;20021;-89
2022/04/15 02:16:34;;;;;;;16.50;7.00;;;;;;;8.91;100.00;94749.19;5053644;28;20422;-89
2022/04/15 02:18:59;;;;;;;17.73;6.82;;;;;;;9.15;100.00;94745.50;5042637;28;20041;-89
2022/04/15 02:21:25;;;;;;;15.23;6.78;;;;;;;9.21;100.00;94743.72;5042570;28;20425;-89
2022/04/15 02:23:50;;;;;;;16.15;6.45;;;;;;;9.38;100.00;94738.34;5040136;28;20029;-90
2022/04/15 02:26:16;;;;;;;13.73;6.30;;;;;;;9.64;100.00;94739.31;5041701;28;20061;-89
2022/04/15 02:28:42;;;;;;;17.33;7.00;;;;;;;9.56;100.00;94737.97;5058846;28;20040;-90
2022/04/15 02:31:07;;;;;;;15.75;6.63;;;;;;;9.39;100.00;94739.91;5059563;28;20454;-90
2022/04/15 02:33:33;;;;;;;13.30;7.00;;;;;;;9.46;100.00;94743.13;5058482;28;20037;-90
2022/04/15 02:35:59;;;;;;;15.13;5.90;;;;;;;9.58;100.00;94742.94;5041703;28;20438;-90
2022/04/15 02:38:24;;;;;;;17.27;6.90;;;;;;;9.62;100.00;94750.03;5059491;28;20029;-89
2022/04/15 02:40:50;;;;;;;14.40;6.63;;;;;;;9.65;100.00;94742.72;5041022;28;20126;-90
2022/04/15 02:43:17;;;;;;;18.45;7.13;;;;;;;9.67;100.00;94738.81;5041764;28;20084;-89
2022/04/15 02:45:43;;;;;;;13.80;5.47;;;;;;;9.67;100.00;94741.44;5057983;28;20086;-89
2022/04/15 02:48:27;;;;;;;11.00;5.35;;;;;;;9.61;100.00;94738.00;5058446;28;20037;-90
2022/04/15 02:50:53;;;;;;;14.57;6.43;;;;;;;9.40;100.00;94734.44;5058097;28;20041;-89
2022/04/15 02:53:19;;;;;;;12.48;5.63;;;;;;;9.32;100.00;94740.13;5042294;28;20040;-90
2022/04/15 02:55:45;;;;;;;14.93;5.85;;;;;;;9.05;100.00;94740.97;5035860;28;20033;-89
2022/04/15 02:58:10;;;;;;;14.85;5.65;;;;;;;8.80;100.00;94734.44;5038003;28;20035;-89
2022/04/15 03:00:36;;;;;;;12.57;5.40;;;;;;;8.74;100.00;94738.84;5038080;28;20083;-90
2022/04/15 03:03:01;;;;;;;10.07;5.63;;;;;;;8.79;100.00;94742.53;5021375;28;20530;-89
2022/04/15 03:05:27;;;;;;;13.27;5.75;;;;;;;8.86;100.00;94735.28;5038379;28;20477;-89
2022/04/15 03:07:52;;;;;;;12.40;4.60;;;;;;;9.04;100.00;94739.38;5038006;28;20337;-89
2022/04/15 03:10:18;;;;;;;12.20;4.90;;;;;;;9.02;100.00;94733.59;5021754;28;20347;-89
2022/04/15 03:12:43;;;;;;;14.75;4.85;;;;;;;9.00;100.00;94736.47;5037992;28;20032;-89
2022/04/15 03:15:09;;;;;;;12.68;5.28;;;;;;;8.96;100.00;94742.44;5038226;28;20419;-90
2022/04/15 03:17:35;;;;;;;11.85;4.75;;;;;;;8.85;100.00;94733.72;5004712;28;20111;-90
2022/04/15 03:20:02;;;;;;;13.40;4.45;;;;;;;8.76;100.00;94734.16;5021559;28;20061;-89
2022/04/15 03:22:29;;;;;;;11.35;5.07;;;;;;;8.57;100.00;94740.75;5037629;28;20026;-88
2022/04/15 03:24:54;;;;;;;11.27;4.65;;;;;;;8.52;100.00;94740.66;5004848;28;20036;-89
2022/04/15 03:27:20;;;;;;;10.45;4.82;;;;;;;8.56;100.00;94739.94;5020943;28;20026;-90
2022/04/15 03:29:45;;;;;;;9.38;4.72;;;;;;;8.50;100.00;94735.72;5021199;28;20025;-88
2022/04/15 03:38:55;;;;;;;9.20;3.28;;;;;;;8.70;100.00;94731.72;5038336;28;20461;-90
2022/04/15 03:41:22;;;;;;;8.45;3.38;;;;;;;8.88;100.00;94733.22;5038390;28;20036;-89
2022/04/15 03:43:48;;;;;;;9.25;3.58;;;;;;;8.99;100.00;94736.72;5021023;28;20179;-89
2022/04/15 03:46:13;;;;;;;9.15;3.47;;;;;;;9.01;100.00;94738.03;5020712;28;20063;-89
2022/04/15 03:48:39;;;;;;;9.90;3.83;;;;;;;8.86;100.00;94737.91;5038795;28;20029;-89
2022/04/15 03:51:04;;;;;;;9.98;4.30;;;;;;;8.81;100.00;94737.84;5038310;28;20036;-90
2022/04/15 03:53:30;;;;;;;11.60;5.57;;;;;;;8.73;100.00;94733.84;5037218;28;20029;-89
2022/04/15 03:55:56;;;;;;;17.25;6.45;;;;;;;8.77;100.00;94735.72;5020446;28;20426;-89
2022/04/15 03:58:21;;;;;;;11.75;5.43;;;;;;;8.61;100.00;94740.03;5020655;28;20115;-89
2022/04/15 04:00:47;;;;;;;11.13;5.53;;;;;;;8.16;100.00;94741.00;5020750;28;20026;-88
2022/04/15 04:03:14;;;;;;;12.27;5.63;;;;;;;8.08;100.00;94739.63;5020422;28;20033;-90
2022/04/15 04:05:40;;;;;;;15.32;6.07;;;;;;;7.92;100.00;94736.03;5037133;28;20423;-90
2022/04/15 04:08:05;;;;;;;12.73;5.50;;;;;;;7.91;100.00;94734.47;5036766;28;20040;-90
2022/04/15 04:10:34;;;;;;;17.65;6.80;;;;;;;7.88;100.00;94737.53;5040763;28;20025;-89
2022/04/15 04:13:00;;;;;;;16.73;6.45;;;;;;;7.86;100.00;94737.78;5057943;28;20025;-89
2022/04/15 04:15:26;;;;;;;17.10;7.10;;;;;;;7.73;100.00;94743.34;5040241;28;20044;-89
2022/04/15 04:17:51;;;;;;;12.45;5.75;;;;;;;7.66;100.00;94740.91;5039956;28;20033;-89
2022/04/15 04:20:17;;;;;;;15.85;5.90;;;;;;;7.59;100.00;94748.88;5031653;28;20061;-90
2022/04/15 04:22:44;;;;;;;13.82;5.70;;;;;;;7.61;100.00;94746.03;5056128;28;20052;-88
2022/04/15 04:25:10;;;;;;;12.18;5.13;;;;;;;7.52;100.00;94753.44;5040287;28;20108;-89
2022/04/15 04:27:37;;;;;;;13.52;5.22;;;;;;;7.59;100.00;94748.06;5039980;28;20086;-89
2022/04/15 04:30:04;;;;;;;13.68;5.50;;;;;;;7.71;100.00;94751.38;5040020;28;20020;-90
2022/04/15 04:32:30;;;;;;;14.60;5.40;;;;;;;7.67;100.00;94757.31;5047203;28;20029;-89
2022/04/15 04:35:41;;;;;;;11.88;4.88;;;;;;;7.86;100.00;94757.84;5056371;28;20362;-90
2022/04/15 04:38:07;;;;;;;14.00;4.95;;;;;;;8.00;100.00;94761.69;5019807;28;20056;-90
2022/04/15 04:40:33;;;;;;;14.43;5.40;;;;;;;8.20;100.00;94763.00;5019344;28;20241;-89
2022/04/15 04:42:59;;;;;;;12.50;4.40;;;;;;;8.23;100.00;94766.94;5019680;28;20029;-90
2022/04/15 04:45:25;;;;;;;10.63;4.97;;;;;;;8.13;100.00;94768.41;5035271;28;20032;-91
2022/04/15 04:47:50;;;;;;;11.45;4.20;;;;;;;8.02;100.00;94777.13;5039411;28;20039;-89
2022/04/15 04:50:16;;;;;;;8.60;4.18;;;;;;;8.04;100.00;94775.06;5055917;28;20029;-89
2022/04/15 04:52:42;;;;;;;13.73;4.85;;;;;;;8.11;100.00;94774.88;5039282;28;20120;-89
2022/04/15 04:55:08;;;;;;;12.32;4.53;;;;;;;8.18;100.00;94781.50;5039181;28;20029;-90
2022/04/15 04:57:35;;;;;;;13.15;4.75;;;;;;;8.09;100.00;94785.56;5039185;28;20041;-89
2022/04/15 05:00:01;;;;;;;13.90;4.72;;;;;;;8.06;100.00;94781.63;5039721;28;20044;-90
2022/04/15 05:02:26;;;;;;;14.73;4.90;;;;;;;8.11;100.00;94774.88;5055782;28;20060;-91
2022/04/15 05:04:52;;;;;;;11.07;4.65;;;;;;;8.16;100.00;94777.56;5039070;28;20354;-90
2022/04/15 05:07:18;;;;;;;9.55;4.57;;;;;;;8.29;100.00;94790.25;5055565;28;20032;-89
2022/04/15 05:09:44;;;;;;;13.02;5.63;;;;;;;8.45;100.00;94782.59;5055814;28;20031;-90
2022/04/15 05:12:10;;;;;;;16.30;5.00;;;;;;;8.56;100.00;94786.19;5055484;28;20082;-90
2022/04/15 05:14:37;;;;;;;13.57;5.25;;;;;;;8.62;100.00;94793.84;5047358;28;20062;-90
2022/04/15 05:17:02;;;;;;;14.20;5.28;;;;;;;8.67;100.00;94797.53;5038795;28;20033;-89
2022/04/15 05:19:28;;;;;;;16.45;5.13;;;;;;;8.74;100.00;94796.31;5003005;28;20415;-90
2022/04/15 05:21:53;;;;;;;21.00;6.55;;;;;;;8.86;100.00;94795.38;5018759;28;20029;-90
2022/04/15 05:24:19;;;;;;;14.13;5.75;;;;;;;8.97;100.00;94791.06;5019129;28;20040;-89
2022/04/15 05:26:44;;;;;;;13.23;5.60;;;;;;;9.18;100.00;94794.66;5019431;28;20040;-91
2022/04/15 05:29:10;;;;;;;11.60;4.85;;;;;;;9.32;100.00;94802.88;5018979;28;20029;-90
2022/04/15 05:31:36;;;;;;;15.43;5.45;;;;;;;9.39;100.00;94802.66;5035500;28;20041;-92
2022/04/15 05:34:02;;;;;;;16.65;6.25;;;;;;;9.54;100.00;94807.25;5002768;28;20063;-92
2022/04/15 05:36:28;;;;;;;13.82;5.80;;;;;;;9.69;100.00;94817.06;5002749;28;20037;-92
2022/04/15 05:38:53;;;;;;;13.25;5.35;;;;;;;9.70;100.00;94818.63;5026369;28;20040;-92
2022/04/15 05:41:19;;;;;;;14.18;5.85;;;;;;;9.78;100.00;94820.00;5039654;28;20033;-91
2022/04/15 05:47:07;;;;;;;18.52;5.50;;;;;;;9.94;100.00;94829.53;5056789;28;20044;-90
2022/04/15 05:49:34;;;;;;;13.68;6.10;;;;;;;10.10;100.00;94832.25;5038766;28;20024;-91
2022/04/15 05:52:01;;;;;;;8.57;4.22;;;;;;;10.14;100.00;94822.84;5039606;28;20323;-90
2022/04/15 05:54:26;;;;;;;11.02;4.20;;;;;;;10.25;100.00;94829.72;5038809;28;20029;-90
2022/04/15 05:56:52;;;;;;;12.93;4.82;;;;;;;10.28;100.00;94823.22;5039117;28;20338;-91
2022/04/15 05:59:20;;;;;;;10.70;4.47;;;;;;;10.37;100.00;94828.75;5038634;28;20040;-91
2022/04/15 06:01:47;;;;;;;16.08;5.22;;;;;;;10.62;100.00;94827.34;5039322;28;20028;-91
2022/04/15 06:04:12;;;;;;;12.68;4.90;;;;;;;10.67;100.00;94820.25;5038987;28;20058;-90
2022/04/15 06:06:37;;;;;;;19.42;6.28;;;;;;;10.85;100.00;94820.88;5038751;28;20047;-91
2022/04/15 06:09:03;;;;;;;16.65;5.90;;;;;;;10.98;100.00;94819.59;5038292;28;20056;-92
2022/04/15 06:11:28;;;;;;;13.70;5.43;;;;;;;11.10;100.00;94821.97;5039097;28;20029;-91
2022/04/15 06:13:54;;;;;;;13.98;5.38;;;;;;;11.23;100.00;94826.72;5038173;28;20025;-91
2022/04/15 06:16:26;;;;;;;18.15;6.53;;;;;;;11.43;99.30;94831.22;5038383;28;20052;-90
2022/04/15 06:18:51;;;;;;;20.65;7.78;;;;;;;11.57;93.33;94822.81;5039797;28;20033;-90
2022/04/15 06:21:17;;;;;;;17.90;6.80;;;;;;;11.64;97.79;94822.56;5038738;28;20040;-93
2022/04/15 06:27:04;;;;;;;13.40;5.22;;;;;;;11.69;100.00;94822.56;5056119;28;20040;-90
2022/04/15 06:29:54;;;;;;;12.10;3.95;;;;;;;11.70;100.00;94824.16;5038803;28;20024;-90
2022/04/15 06:32:19;;;;;;;11.23;3.85;;;;;;;11.73;100.00;94828.88;5055237;28;20082;-91
2022/04/15 06:35:09;;;;;;;9.63;4.15;;;;;;;11.91;100.00;94832.00;5041847;28;20446;-90
2022/04/15 06:37:34;;;;;;;16.38;5.07;;;;;;;11.94;100.00;94834.91;5058761;28;20025;-90
2022/04/15 06:40:00;;;;;;;16.75;5.22;;;;;;;11.97;100.00;94833.56;5041728;28;20033;-90
2022/04/15 06:42:30;;;;;;;13.88;4.82;;;;;;;11.98;100.00;94822.81;5041841;28;20024;-90
2022/04/15 06:44:55;;;;;;;13.07;5.00;;;;;;;12.06;100.00;94824.16;5042362;28;20083;-90
2022/04/15 06:47:21;;;;;;;19.48;5.95;;;;;;;12.23;92.19;94831.75;5058123;28;20037;-90
2022/04/15 06:49:47;;;;;;;10.88;4.13;;;;;;;12.45;100.00;94828.00;5058097;28;20420;-90
2022/04/15 06:52:13;;;;;;;14.02;4.00;;;;;;;12.19;100.00;94825.44;5041847;28;20170;-90
2022/04/15 06:54:39;;;;;;;11.80;3.63;;;;;;;12.47;94.82;94831.16;5058067;28;20025;-91
2022/04/15 06:57:05;;;;;;;8.30;3.85;;;;;;;12.50;96.32;94833.25;5041267;28;20032;-90
2022/04/15 06:59:30;;;;;;;7.80;2.95;;;;;;;12.48;99.20;94832.75;5041996;28;20033;-90
2022/04/15 07:01:57;;;;;;;8.32;3.67;;;;;;;12.52;95.74;94831.16;5058050;28;20029;-89
2022/04/15 07:04:23;;;;;;;9.85;3.58;;;;;;;12.44;90.21;94839.56;5058516;28;20024;-91
2022/04/15 07:06:49;;;;;;;7.53;3.50;;;;;;;12.55;86.16;94835.88;5041379;28;20048;-91
2022/04/15 07:09:14;;;;;;;7.78;3.92;;;;;;;12.69;84.52;94838.69;5041107;28;20411;-90
2022/04/15 07:11:40;;;;;;;12.77;3.97;;;;;;;12.61;88.12;94839.28;5041633;28;20414;-90
2022/04/15 07:14:05;;;;;;;9.57;3.75;;;;;;;12.82;90.69;94832.09;5040932;28;20064;-90
2022/04/15 07:16:31;;;;;;;9.13;3.85;;;;;;;12.89;89.47;94838.91;5057606;28;20035;-91
2022/04/15 07:18:57;;;;;;;8.18;3.70;;;;;;;13.04;83.70;94830.94;5057525;28;20075;-90
2022/04/15 07:21:24;;;;;;;13.65;3.40;;;;;;;13.15;84.98;94835.09;5043899;28;20040;-91
2022/04/15 07:23:50;;;;;;;8.82;3.80;;;;;;;13.18;79.95;94839.03;5024592;28;20037;-91
2022/04/15 07:26:15;;;;;;;8.55;3.40;;;;;;;13.37;82.44;94841.81;5024116;28;20029;-91
2022/04/15 07:28:41;;;;;;;11.63;3.22;;;;;;;13.42;87.30;94833.88;5040732;28;20056;-89
2022/04/15 07:31:07;;;;;;;15.80;4.15;;;;;;;13.49;82.79;94830.97;5040906;28;20078;-90
2022/04/15 07:33:32;;;;;;;9.00;3.45;;;;;;;13.50;77.19;94824.63;5024460;28;20024;-86
2022/04/15 07:35:57;;;;;;;10.13;3.92;;;;;;;13.44;83.44;94828.38;5040683;28;20029;-87
2022/04/15 07:38:23;;;;;;;11.02;3.83;;;;;;;13.23;98.63;94830.31;5058427;28;20064;-87
2022/04/15 07:40:48;;;;;;;11.20;3.35;;;;;;;13.36;86.08;94839.44;5040792;28;20167;-87
2022/04/15 07:43:14;;;;;;;10.43;3.72;;;;;;;13.24;85.80;94829.25;5040750;28;20166;-86
2022/04/15 07:45:40;;;;;;;11.30;3.33;;;;;;;13.37;85.56;94831.28;5039253;28;20029;-86
2022/04/15 07:48:06;;;;;;;15.75;3.67;;;;;;;13.32;84.77;94831.31;5040648;28;20032;-86
2022/04/15 07:50:31;;;;;;;7.80;3.20;;;;;;;13.63;81.37;94820.63;5040362;28;20425;-86
2022/04/15 07:52:58;;;;;;;11.00;3.30;;;;;;;13.70;76.30;94828.19;5039747;28;20033;-86
2022/04/15 07:55:24;;;;;;;9.80;3.10;;;;;;;13.98;75.68;94824.00;5040174;28;20040;-86
2022/04/15 07:57:50;;;;;;;9.77;2.90;;;;;;;13.83;71.88;94822.28;5023628;28;20028;-87
2022/04/15 08:00:17;;;;;;;7.72;2.95;;;;;;;13.91;67.75;94828.03;5040770;28;20040;-86
2022/04/15 08:02:43;;;;;;;11.43;2.60;;;;;;;14.03;67.82;94825.00;5057573;28;20123;-86
2022/04/15 08:05:29;;;;;;;7.25;2.83;;;;;;;14.09;64.91;94819.44;5040036;28;20020;-85
2022/04/15 08:07:54;;;;;;;11.35;3.72;;;;;;;14.22;67.86;94818.00;5039814;28;20032;-85
2022/04/15 08:10:20;;;;;;;8.77;3.55;;;;;;;14.17;66.97;94823.31;5039816;28;20442;-85
2022/04/15 08:12:45;;;;;;;7.78;3.00;;;;;;;14.42;65.51;94821.47;5039750;28;20028;-85
2022/04/15 08:15:11;;;;;;;7.90;2.67;;;;;;;14.38;66.04;94815.22;5023397;28;20029;-85
2022/04/15 08:17:36;;;;;;;6.10;2.67;;;;;;;14.55;62.86;94820.81;5057304;28;20430;-86
2022/04/15 08:20:02;;;;;;;8.68;3.42;;;;;;;14.69;65.91;94825.41;5039659;28;20457;-86
2022/04/15 08:22:28;;;;;;;7.45;2.97;;;;;;;14.54;60.70;94824.50;5039564;28;20029;-86
2022/04/15 08:24:54;;;;;;;7.93;3.08;;;;;;;14.75;58.61;94824.28;5039668;28;20021;-86
2022/04/15 08:27:20;;;;;;;7.63;3.15;;;;;;;14.69;53.41;94820.13;5039559;28;20059;-85
2022/04/15 08:29:45;;;;;;;8.43;2.65;;;;;;;14.79;52.68;94824.53;5023056;28;20349;-87
2022/04/15 08:32:11;;;;;;;9.13;2.60;;;;;;;14.80;53.72;94823.47;5039584;28;20026;-85
2022/04/15 08:34:37;;;;;;;8.02;3.33;;;;;;;14.91;52.16;94821.47;5057078;28;20052;-86
2022/04/15 08:37:04;;;;;;;9.40;3.00;;;;;;;14.69;55.58;94826.19;5023037;28;20468;-86
2022/04/15 08:39:30;;;;;;;9.77;3.42;;;;;;;14.81;52.38;94822.38;5057089;28;20035;-85
2022/04/15 08:41:58;;;;;;;9.02;3.15;;;;;;;14.79;56.21;94814.78;5038660;28;20037;-86
2022/04/15 08:44:25;;;;;;;11.10;3.28;;;;;;;14.91;53.79;94814.34;5039565;28;20032;-85
2022/04/15 08:46:50;;;;;;;10.68;2.97;;;;;;;15.12;61.27;94817.50;5039103;28;20031;-86
2022/04/15 08:49:19;;;;;;;10.98;3.80;;;;;;;15.22;56.79;94813.19;5057070;28;20025;-86
2022/04/15 08:51:47;;;;;;;7.97;3.55;;;;;;;15.32;55.45;94809.59;5039449;28;20500;-86
2022/04/15 08:54:13;;;;;;;7.10;3.40;;;;;;;15.44;63.01;94811.81;5039191;28;20323;-86
2022/04/15 08:56:38;;;;;;;9.68;3.60;;;;;;;15.64;56.06;94816.78;5022175;28;20075;-85
2022/04/15 08:59:04;;;;;;;9.55;3.70;;;;;;;15.66;57.75;94800.63;5039273;28;20044;-85
2022/04/15 09:01:30;;;;;;;8.10;3.20;;;;;;;15.76;57.82;94802.31;5038998;28;20024;-87
2022/04/15 09:03:57;;;;;;;9.05;4.47;;;;;;;15.76;60.31;94803.13;5038794;28;20029;-86
2022/04/15 09:06:29;;;;;;;8.68;3.90;;;;;;;15.72;54.25;94796.84;5038739;28;20025;-86
2022/04/15 09:09:06;;;;;;;9.25;3.97;;;;;;;15.83;58.66;94792.19;5056566;28;20032;-86
2022/04/15 09:11:34;;;;;;;9.50;3.70;;;;;;;15.91;57.30;94790.75;5038970;28;20021;-86
2022/04/15 09:14:03;;;;;;;11.75;3.58;;;;;;;15.93;60.29;94786.75;5056881;28;20028;-86
2022/04/15 09:16:30;;;;;;;15.13;3.30;;;;;;;15.67;57.38;94789.78;5022163;28;20036;-86
2022/04/15 09:18:56;;;;;;;13.18;3.90;;;;;;;15.89;55.82;94790.25;5038916;28;20035;-87
2022/04/15 09:21:28;;;;;;;14.43;5.95;;;;;;;15.91;60.09;94791.53;5057014;28;20342;-86
2022/04/15 09:23:55;;;;;;;14.93;3.88;;;;;;;16.04;52.26;94776.00;5022655;28;20044;-86
2022/04/15 09:26:22;;;;;;;11.70;3.70;;;;;;;16.40;58.71;94788.56;5038697;28;20029;-87
2022/04/15 09:28:48;;;;;;;12.05;3.67;;;;;;;16.09;52.11;94781.97;5039006;28;20024;-86
2022/04/15 09:31:16;;;;;;;10.63;3.20;;;;;;;16.08;55.54;94777.78;5038527;28;20468;-86
2022/04/15 09:34:01;;;;;;;12.13;2.58;;;;;;;16.13;53.41;94771.63;5018756;28;20026;-86
2022/04/15 09:36:37;;;;;;;8.90;3.40;;;;;;;16.45;53.63;94785.06;5026235;28;20033;-86
2022/04/15 09:39:11;;;;;;;11.27;3.10;;;;;;;16.31;51.52;94779.75;5018613;28;20029;-87
2022/04/15 09:41:40;;;;;;;10.60;4.38;;;;;;;16.40;55.16;94770.81;5020989;28;20105;-86
2022/04/15 09:44:06;;;;;;;9.48;2.35;;;;;;;16.74;52.37;94776.78;5022226;28;20037;-86
2022/04/15 09:46:32;;;;;;;6.63;2.92;;;;;;;16.66;50.33;94780.16;5038232;28;20032;-86
2022/04/15 09:49:07;;;;;;;8.73;2.40;;;;;;;16.77;53.35;94775.44;5038268;28;20052;-86
2022/04/15 09:51:44;;;;;;;7.18;2.33;;;;;;;17.00;52.16;94768.34;5029077;28;20032;-86
2022/04/15 09:54:20;;;;;;;5.68;2.33;;;;;;;17.07;49.78;94771.38;5019416;28;20426;-85
2022/04/15 09:56:46;;;;;;;11.32;3.13;;;;;;;17.21;52.21;94771.34;5002610;28;20127;-86
2022/04/15 09:59:15;;;;;;;6.35;2.42;;;;;;;17.41;49.27;94760.56;5018661;28;20034;-86
2022/04/15 10:01:45;;;;;;;10.25;2.50;;;;;;;17.52;49.57;94761.91;5002754;28;20434;-86
2022/04/15 10:04:13;;;;;;;6.95;2.65;;;;;;;17.52;48.17;94754.72;5018732;28;20108;-86
2022/04/15 10:06:40;;;;;;;7.03;2.10;;;;;;;17.51;49.35;94755.03;5018493;28;20029;-86
2022/04/15 10:09:06;;;;;;;10.82;2.30;;;;;;;17.57;50.35;94751.19;5005405;28;20140;-86
2022/04/15 10:11:35;;;;;;;8.18;2.65;;;;;;;17.65;48.58;94750.47;5038968;28;20025;-86
2022/04/15 10:14:01;;;;;;;7.53;2.53;;;;;;;17.43;45.61;94748.59;5006269;28;20336;-86
2022/04/15 10:16:27;;;;;;;7.93;2.35;;;;;;;17.44;45.47;94746.72;5022000;28;20052;-86
2022/04/15 10:18:52;;;;;;;8.27;2.40;;;;;;;17.59;46.99;94749.00;5039942;28;20443;-86
2022/04/15 10:21:18;;;;;;;5.25;2.35;;;;;;;18.06;43.27;94747.88;5050533;28;20032;-87
2022/04/15 10:23:44;;;;;;;8.73;2.22;;;;;;;18.16;45.59;94747.59;5060008;28;20316;-86
2022/04/15 10:26:09;;;;;;;5.38;2.03;;;;;;;18.23;44.61;94742.66;5041699;28;20040;-86
2022/04/15 10:28:44;;;;;;;6.78;2.38;;;;;;;18.06;43.42;94743.38;5058562;28;20051;-86
2022/04/15 10:31:16;;;;;;;7.80;2.80;;;;;;;18.04;44.48;94742.09;5042024;28;20025;-86
2022/04/15 10:33:43;;;;;;;7.50;3.13;;;;;;;18.22;44.27;94741.09;5035194;28;20059;-86
2022/04/15 10:36:16;;;;;;;6.72;3.42;;;;;;;18.42;44.40;94740.81;5058390;28;20093;-86
2022/04/15 10:39:06;;;;;;;9.85;3.90;;;;;;;18.00;47.14;94741.13;5059441;28;20032;-86
2022/04/15 10:41:40;;;;;;;9.00;4.40;;;;;;;18.12;49.21;94744.00;5059532;28;20117;-85
2022/04/15 10:44:06;;;;;;;11.88;4.85;;;;;;;18.13;47.18;94740.28;5058265;28;20127;-85
2022/04/15 10:46:35;;;;;;;11.63;4.95;;;;;;;17.77;47.12;94741.16;5061193;28;20124;-86
2022/04/15 10:49:02;;;;;;;10.90;5.07;;;;;;;18.02;49.26;94746.91;5061803;28;20043;-86
2022/04/15 10:51:36;;;;;;;12.57;5.03;;;;;;;18.33;47.87;94740.81;5061838;28;20033;-90
2022/04/15 10:54:36;;;;;;;17.73;5.40;;;;;;;18.53;48.61;94741.34;5044988;28;20062;-89
2022/04/15 10:57:14;;;;;;;15.85;6.00;;;;;;;18.72;49.74;94735.75;5079236;28;20032;-89
2022/04/15 11:02:54;;;;;;;17.02;7.18;;;;;;;18.48;49.73;94732.41;5058553;28;20346;-88
2022/04/15 11:05:43;;;;;;;12.80;6.25;;;;;;;18.75;55.70;94735.91;5025293;28;20032;-88
2022/04/15 11:08:16;;;;;;;17.88;6.57;;;;;;;18.59;48.74;94726.84;5058989;28;20051;-87
2022/04/15 11:10:42;;;;;;;;;;;;;;;19.11;51.04;94730.66;5059593;28;20028;-89
2022/04/15 11:13:34;;;;;;;13.00;6.00;;;;;;;18.72;47.59;94723.25;5059472;28;19915;-90
2022/04/15 11:16:01;;;;;;;13.07;5.82;;;;;;;19.11;48.65;94720.06;5017513;28;20055;-89
2022/04/15 11:18:54;;;;;;;16.38;6.47;;;;;;;19.19;46.27;94733.31;5022145;28;20052;-89
2022/04/15 11:21:30;;;;;;;13.82;6.85;;;;;;;18.83;47.30;94730.94;5042598;28;20033;-90
2022/04/15 11:24:01;;;;;;;16.15;6.07;;;;;;;18.70;46.91;94729.97;5025864;28;20465;-88
2022/04/15 11:26:27;;;;;;;19.92;6.30;;;;;;;18.79;51.57;94718.28;5042082;28;20342;-91
2022/04/15 11:28:54;;;;;;;12.30;6.10;;;;;;;18.89;48.14;94721.72;5041762;28;20405;-88
2022/04/15 11:31:28;;;;;;;13.02;6.35;;;;;;;19.09;46.19;94719.59;5042118;28;20025;-89
2022/04/15 11:33:55;;;;;;;16.35;6.40;;;;;;;19.06;45.67;94728.94;5026348;28;20116;-91
2022/04/15 11:36:23;;;;;;;11.45;5.38;;;;;;;19.22;44.31;94723.94;5042008;28;20112;-91
2022/04/15 11:38:51;;;;;;;12.77;5.53;;;;;;;19.14;44.03;94732.69;5025357;28;20024;-92
2022/04/15 11:41:19;;;;;;;18.48;6.07;;;;;;;18.58;42.39;94730.56;5041210;28;20345;-92
2022/04/15 11:44:17;;;;;;;12.82;5.18;;;;;;;18.58;40.94;94730.56;5040960;28;20033;-91
2022/04/15 11:46:46;;;;;;;10.57;4.63;;;;;;;18.98;42.05;94727.81;5036121;28;20037;-91